createdAt,value
2023-09-17T00:00:42.818Z,101939.60
2023-09-17T00:03:31.317Z,101943.20
2023-09-17T00:06:00.862Z,101945.60
2023-09-17T00:08:29.362Z,101952.80
2023-09-17T00:10:57.308Z,101950.80
2023-09-17T00:13:26.262Z,101949.60
2023-09-17T00:15:54.572Z,101956.40
2023-09-17T00:18:22.724Z,101956.40
2023-09-17T00:20:50.580Z,101962.20
2023-09-17T00:23:18.438Z,101961.60
2023-09-17T00:25:46.585Z,101964.20
2023-09-17T00:28:15.066Z,101969.20
2023-09-17T00:30:43.533Z,101968.60
2023-09-17T00:33:13.348Z,101967.20
2023-09-17T00:35:41.315Z,101970.00
2023-09-17T00:38:10.743Z,101968.60
2023-09-17T00:40:40.826Z,101970.40
2023-09-17T00:43:09.928Z,101972.80
2023-09-17T00:45:39.868Z,101977.80
2023-09-17T00:48:09.230Z,101980.80
2023-09-17T00:50:40.411Z,101984.60
2023-09-17T00:53:09.710Z,101986.00
2023-09-17T00:55:38.985Z,101984.40
2023-09-17T00:58:08.166Z,101989.20
2023-09-17T01:00:39.819Z,101988.20
2023-09-17T01:03:08.630Z,101992.40
2023-09-17T01:05:44.457Z,101993.60
2023-09-17T01:08:13.520Z,101993.60
2023-09-17T01:10:42.106Z,102001.80
2023-09-17T01:13:11.302Z,102000.00
2023-09-17T01:15:39.329Z,102000.00
2023-09-17T01:18:11.963Z,101997.40
2023-09-17T01:21:03.920Z,102000.20
2023-09-17T01:23:47.996Z,102006.40
2023-09-17T01:26:28.003Z,102008.00
2023-09-17T01:28:57.431Z,102005.20
2023-09-17T01:31:28.678Z,102007.60
2023-09-17T01:33:57.136Z,102012.40
2023-09-17T01:36:36.064Z,102014.80
2023-09-17T01:39:15.924Z,102019.00
2023-09-17T01:41:46.377Z,102021.40
2023-09-17T01:44:15.811Z,102022.00
2023-09-17T01:46:46.967Z,102023.80
2023-09-17T01:49:16.118Z,102024.00
2023-09-17T01:51:45.845Z,102029.40
2023-09-17T01:54:15.623Z,102034.20
2023-09-17T01:56:44.563Z,102032.80
2023-09-17T01:59:13.617Z,102033.80
2023-09-17T02:01:43.790Z,102037.80
2023-09-17T02:04:12.391Z,102037.60
2023-09-17T02:06:40.400Z,102035.60
2023-09-17T02:09:09.997Z,102034.20
2023-09-17T02:11:37.921Z,102035.00
2023-09-17T02:14:09.209Z,102036.80
2023-09-17T02:16:38.510Z,102039.20
2023-09-17T02:19:07.937Z,102039.20
2023-09-17T02:21:35.885Z,102043.00
2023-09-17T02:24:07.263Z,102042.60
2023-09-17T02:26:35.212Z,102043.60
2023-09-17T02:29:07.963Z,102047.40
2023-09-17T02:31:36.115Z,102050.20
2023-09-17T02:34:05.278Z,102052.60
2023-09-17T02:36:35.374Z,102051.00
2023-09-17T02:39:04.102Z,102055.00
2023-09-17T02:41:34.717Z,102056.40
2023-09-17T02:44:04.566Z,102058.20
2023-09-17T02:46:32.768Z,102061.20
2023-09-17T02:49:01.322Z,102057.40
2023-09-17T02:51:29.867Z,102062.20
2023-09-17T02:53:58.029Z,102065.00
2023-09-17T02:56:26.380Z,102065.00
2023-09-17T02:58:54.266Z,102066.80
2023-09-17T03:01:25.715Z,102067.00
2023-09-17T03:03:54.396Z,102065.40
2023-09-17T03:06:22.977Z,102068.60
2023-09-17T03:08:50.949Z,102076.00
2023-09-17T03:11:19.125Z,102076.80
2023-09-17T03:13:48.531Z,102081.60
2023-09-17T03:16:17.395Z,102079.40
2023-09-17T03:18:46.335Z,102077.00
2023-09-17T03:21:14.759Z,102081.60
2023-09-17T03:23:42.629Z,102079.60
2023-09-17T03:26:11.719Z,102082.00
2023-09-17T03:28:39.713Z,102083.40
2023-09-17T03:31:07.690Z,102080.20
2023-09-17T03:33:37.043Z,102081.00
2023-09-17T03:36:05.858Z,102078.40
2023-09-17T03:38:34.577Z,102088.20
2023-09-17T03:41:02.547Z,102091.00
2023-09-17T03:43:32.038Z,102089.20
2023-09-17T03:46:07.909Z,102084.40
2023-09-17T03:48:35.892Z,102085.40
2023-09-17T03:51:05.865Z,102094.20
2023-09-17T03:53:34.916Z,102091.80
2023-09-17T03:56:03.066Z,102093.60
2023-09-17T03:58:32.445Z,102094.40
2023-09-17T04:01:01.424Z,102095.60
2023-09-17T04:03:33.522Z,102102.20
2023-09-17T04:06:03.693Z,102106.00
2023-09-17T04:08:31.882Z,102106.00
2023-09-17T04:11:00.980Z,102104.60
2023-09-17T04:13:30.814Z,102103.40
2023-09-17T04:15:58.820Z,102108.80
2023-09-17T04:18:28.098Z,102111.80
2023-09-17T04:20:56.657Z,102117.00
2023-09-17T04:23:26.394Z,102119.20
2023-09-17T04:25:57.346Z,102112.80
2023-09-17T04:28:26.336Z,102115.60
2023-09-17T04:30:54.307Z,102122.60
2023-09-17T04:33:22.858Z,102129.80
2023-09-17T04:36:00.092Z,102130.60
2023-09-17T04:38:28.768Z,102135.00
2023-09-17T04:40:58.207Z,102143.60
2023-09-17T04:43:28.057Z,102143.40
2023-09-17T04:45:56.276Z,102147.80
2023-09-17T04:48:24.458Z,102151.60
2023-09-17T04:50:52.615Z,102154.80
2023-09-17T04:53:20.787Z,102161.80
2023-09-17T04:55:49.037Z,102165.20
2023-09-17T04:58:17.717Z,102165.00
2023-09-17T05:00:46.651Z,102167.60
2023-09-17T05:03:14.733Z,102173.20
2023-09-17T05:05:43.462Z,102175.20
2023-09-17T05:08:11.318Z,102176.60
2023-09-17T05:10:39.386Z,102179.60
2023-09-17T05:13:07.497Z,102182.40
2023-09-17T05:15:35.839Z,102187.00
2023-09-17T05:18:10.404Z,102189.40
2023-09-17T05:20:44.953Z,102193.80
2023-09-17T05:23:12.936Z,102190.20
2023-09-17T05:25:40.967Z,102189.80
2023-09-17T05:28:09.694Z,102194.20
2023-09-17T05:30:38.579Z,102202.80
2023-09-17T05:33:07.845Z,102212.60
2023-09-17T05:35:38.198Z,102205.00
2023-09-17T05:38:06.817Z,102212.00
2023-09-17T05:40:35.413Z,102216.60
2023-09-17T05:43:03.386Z,102224.20
2023-09-17T05:45:31.810Z,102224.80
2023-09-17T05:47:59.997Z,102227.40
2023-09-17T05:50:27.911Z,102226.60
2023-09-17T05:52:58.813Z,102229.20
2023-09-17T05:55:26.792Z,102238.80
2023-09-17T05:57:55.238Z,102233.80
2023-09-17T06:00:23.993Z,102234.40
2023-09-17T06:02:52.165Z,102243.20
2023-09-17T06:05:21.310Z,102239.80
2023-09-17T06:07:50.873Z,102241.00
2023-09-17T06:10:18.855Z,102247.00
2023-09-17T06:12:46.805Z,102248.60
2023-09-17T06:15:17.300Z,102249.20
2023-09-17T06:17:45.504Z,102248.00
2023-09-17T06:20:13.432Z,102257.40
2023-09-17T06:22:42.301Z,102255.40
2023-09-17T06:25:11.049Z,102253.00
2023-09-17T06:27:40.089Z,102258.40
2023-09-17T06:30:09.296Z,102256.80
2023-09-17T06:32:38.617Z,102262.00
2023-09-17T06:35:08.277Z,102260.40
2023-09-17T06:37:36.512Z,102259.80
2023-09-17T06:40:04.852Z,102266.20
2023-09-17T06:42:33.317Z,102261.80
2023-09-17T06:45:04.979Z,102261.60
2023-09-17T06:47:35.047Z,102264.00
2023-09-17T06:50:03.521Z,102267.00
2023-09-17T06:52:31.565Z,102270.40
2023-09-17T06:54:59.546Z,102263.60
2023-09-17T06:57:30.482Z,102268.60
2023-09-17T07:00:00.313Z,102274.60
2023-09-17T07:02:28.567Z,102279.60
2023-09-17T07:04:56.635Z,102279.60
2023-09-17T07:07:24.964Z,102285.60
2023-09-17T07:09:52.823Z,102290.20
2023-09-17T07:12:21.087Z,102291.60
2023-09-17T07:14:49.459Z,102295.00
2023-09-17T07:17:17.995Z,102294.80
2023-09-17T07:19:46.171Z,102298.20
2023-09-17T07:22:16.302Z,102297.00
2023-09-17T07:24:44.338Z,102295.40
2023-09-17T07:27:15.261Z,102298.60
2023-09-17T07:29:47.175Z,102299.60
2023-09-17T07:32:15.768Z,102304.60
2023-09-17T07:34:43.764Z,102309.80
2023-09-17T07:37:12.553Z,102309.60
2023-09-17T07:39:41.153Z,102310.80
2023-09-17T07:42:09.334Z,102310.20
2023-09-17T07:44:37.671Z,102316.00
2023-09-17T07:47:07.538Z,102321.00
2023-09-17T07:49:37.644Z,102324.20
2023-09-17T07:52:07.323Z,102327.00
2023-09-17T07:54:42.180Z,102325.40
2023-09-17T07:57:14.516Z,102329.80
2023-09-17T07:59:42.436Z,102329.20
2023-09-17T08:02:10.788Z,102331.80
2023-09-17T08:04:39.065Z,102332.40
2023-09-17T08:07:07.235Z,102330.60
2023-09-17T08:09:35.300Z,102335.40
2023-09-17T08:12:04.256Z,102331.20
2023-09-17T08:14:35.874Z,102332.60
2023-09-17T08:17:05.538Z,102336.60
2023-09-17T08:19:33.807Z,102340.20
2023-09-17T08:22:02.200Z,102341.80
2023-09-17T08:24:30.341Z,102341.20
2023-09-17T08:26:58.474Z,102345.20
2023-09-17T08:29:26.595Z,102355.80
2023-09-17T08:31:55.229Z,102355.00
2023-09-17T08:34:24.101Z,102358.20
2023-09-17T08:36:52.065Z,102358.80
2023-09-17T08:39:21.287Z,102360.60
2023-09-17T08:41:51.858Z,102361.00
2023-09-17T08:44:21.274Z,102361.40
2023-09-17T08:46:53.929Z,102360.80
2023-09-17T08:49:21.858Z,102361.20
2023-09-17T08:51:56.655Z,102368.60
2023-09-17T08:54:39.132Z,102372.00
2023-09-17T08:57:09.746Z,102377.40
2023-09-17T08:59:50.108Z,102374.40
2023-09-17T09:02:28.656Z,102372.20
2023-09-17T09:04:59.276Z,102374.60
2023-09-17T09:07:30.217Z,102376.40
2023-09-17T09:09:59.097Z,102376.20
2023-09-17T09:12:27.800Z,102377.00
2023-09-17T09:14:59.073Z,102386.20
2023-09-17T09:17:28.954Z,102382.60
2023-09-17T09:19:58.625Z,102381.60
2023-09-17T09:22:26.791Z,102381.60
2023-09-17T09:24:55.215Z,102386.20
2023-09-17T09:27:23.153Z,102380.80
2023-09-17T09:29:51.235Z,102375.20
2023-09-17T09:32:20.100Z,102378.20
2023-09-17T09:34:49.452Z,102373.80
2023-09-17T09:37:24.493Z,102376.00
2023-09-17T09:39:53.311Z,102374.40
2023-09-17T09:42:24.313Z,102375.00
2023-09-17T09:44:53.304Z,102377.60
2023-09-17T09:47:26.454Z,102377.60
2023-09-17T09:49:55.167Z,102375.00
2023-09-17T09:52:25.497Z,102367.60
2023-09-17T09:54:53.765Z,102364.60
2023-09-17T09:57:22.492Z,102362.00
2023-09-17T09:59:52.796Z,102358.40
2023-09-17T10:02:23.413Z,102359.40
2023-09-17T10:04:51.583Z,102362.60
2023-09-17T10:07:19.754Z,102359.00
2023-09-17T10:09:48.031Z,102353.40
2023-09-17T10:12:16.691Z,102351.60
2023-09-17T10:14:48.100Z,102352.60
2023-09-17T10:17:19.759Z,102355.00
2023-09-17T10:19:50.433Z,102358.20
2023-09-17T10:22:22.116Z,102354.80
2023-09-17T10:24:55.226Z,102353.80
2023-09-17T10:27:24.610Z,102351.00
2023-09-17T10:29:54.568Z,102349.20
2023-09-17T10:32:22.869Z,102346.80
2023-09-17T10:34:54.247Z,102347.40
2023-09-17T10:37:24.904Z,102347.80
2023-09-17T10:39:55.568Z,102345.00
2023-09-17T10:42:26.329Z,102345.20
2023-09-17T10:44:58.841Z,102342.80
2023-09-17T10:47:29.900Z,102349.60
2023-09-17T10:49:59.214Z,102349.40
2023-09-17T10:52:27.740Z,102347.40
2023-09-17T10:54:55.696Z,102336.40
2023-09-17T10:57:37.217Z,102331.00
2023-09-17T11:00:16.737Z,102331.80
2023-09-17T11:02:57.534Z,102332.00
2023-09-17T11:05:31.200Z,102333.40
2023-09-17T11:08:09.942Z,102337.00
2023-09-17T11:10:43.590Z,102338.60
2023-09-17T11:13:16.396Z,102342.20
2023-09-17T11:15:45.471Z,102339.60
2023-09-17T11:18:13.610Z,102343.40
2023-09-17T11:21:08.468Z,102345.60
2023-09-17T11:23:39.803Z,102343.20
2023-09-17T11:26:08.355Z,102346.60
2023-09-17T11:28:40.197Z,102341.00
2023-09-17T11:31:11.665Z,102338.80
2023-09-17T11:33:40.421Z,102346.40
2023-09-17T11:36:09.639Z,102344.60
2023-09-17T11:38:37.703Z,102350.80
2023-09-17T11:41:10.369Z,102353.60
2023-09-17T11:43:53.821Z,102358.60
2023-09-17T11:46:24.800Z,102366.00
2023-09-17T11:48:54.336Z,102364.60
2023-09-17T11:51:25.693Z,102375.20
2023-09-17T11:54:01.561Z,102373.00
2023-09-17T11:56:33.482Z,102372.40
2023-09-17T11:59:10.786Z,102380.00
2023-09-17T12:01:53.701Z,102386.80
2023-09-17T12:04:26.688Z,102395.00
2023-09-17T12:06:55.646Z,102399.20
2023-09-17T12:09:54.357Z,102403.20
2023-09-17T12:12:22.543Z,102411.80
2023-09-17T12:14:50.770Z,102409.20
2023-09-17T12:17:19.126Z,102407.80
2023-09-17T12:19:50.555Z,102413.40
2023-09-17T12:22:18.713Z,102418.80
2023-09-17T12:25:04.615Z,102428.80
2023-09-17T12:27:32.535Z,102430.60
2023-09-17T12:30:02.446Z,102433.20
2023-09-17T12:32:36.109Z,102434.60
2023-09-17T12:35:08.061Z,102434.60
2023-09-17T12:37:36.273Z,102436.60
2023-09-17T12:40:09.169Z,102433.80
2023-09-17T12:42:37.307Z,102432.40
2023-09-17T12:45:06.440Z,102441.00
2023-09-17T12:47:35.041Z,102437.20
2023-09-17T12:50:06.016Z,102439.60
2023-09-17T12:52:34.991Z,102438.40
2023-09-17T12:55:04.531Z,102441.40
2023-09-17T12:57:33.156Z,102439.00
2023-09-17T13:00:04.765Z,102447.60
2023-09-17T13:02:36.622Z,102440.40
2023-09-17T13:05:06.424Z,102437.60
2023-09-17T13:07:37.632Z,102441.20
2023-09-17T13:10:10.277Z,102440.00
2023-09-17T13:12:47.089Z,102441.80
2023-09-17T13:15:15.063Z,102440.20
2023-09-17T13:17:45.573Z,102442.60
2023-09-17T13:20:15.539Z,102440.40
2023-09-17T13:22:43.919Z,102439.80
2023-09-17T13:25:12.101Z,102436.60
2023-09-17T13:27:40.422Z,102430.00
2023-09-17T13:30:11.048Z,102432.20
2023-09-17T13:32:39.021Z,102429.40
2023-09-17T13:35:12.253Z,102419.60
2023-09-17T13:37:42.030Z,102420.40
2023-09-17T13:40:13.933Z,102416.20
2023-09-17T13:42:41.920Z,102410.80
2023-09-17T13:45:10.620Z,102399.60
2023-09-17T13:47:38.558Z,102395.00
2023-09-17T13:50:07.793Z,102390.00
2023-09-17T13:52:36.337Z,102382.60
2023-09-17T13:55:06.940Z,102386.20
2023-09-17T13:57:34.894Z,102385.40
2023-09-17T14:00:03.953Z,102381.60
2023-09-17T14:02:32.495Z,102378.00
2023-09-17T14:05:01.931Z,102380.00
2023-09-17T14:07:33.688Z,102375.00
2023-09-17T14:10:01.640Z,102374.20
2023-09-17T14:12:29.700Z,102375.60
2023-09-17T14:14:57.591Z,102369.80
2023-09-17T14:17:26.954Z,102368.20
2023-09-17T14:19:55.122Z,102366.40
2023-09-17T14:22:25.447Z,102366.80
2023-09-17T14:24:53.632Z,102375.00
2023-09-17T14:27:22.141Z,102368.20
2023-09-17T14:29:51.104Z,102365.20
2023-09-17T14:32:21.187Z,102371.80
2023-09-17T14:34:51.232Z,102370.00
2023-09-17T14:37:19.330Z,102367.20
2023-09-17T14:39:49.478Z,102370.20
2023-09-17T14:42:18.657Z,102373.20
2023-09-17T14:44:46.762Z,102371.60
2023-09-17T14:47:15.269Z,102366.40
2023-09-17T14:49:45.774Z,102366.40
2023-09-17T14:52:14.957Z,102361.20
2023-09-17T14:54:43.761Z,102361.20
2023-09-17T14:57:13.303Z,102368.20
2023-09-17T14:59:44.032Z,102369.00
2023-09-17T15:02:12.435Z,102368.60
2023-09-17T15:04:41.671Z,102373.20
2023-09-17T15:07:13.448Z,102369.80
2023-09-17T15:09:43.095Z,102366.40
2023-09-17T15:12:11.691Z,102363.80
2023-09-17T15:14:39.996Z,102360.60
2023-09-17T15:17:08.685Z,102364.60
2023-09-17T15:19:37.399Z,102370.60
2023-09-17T15:22:07.597Z,102374.60
2023-09-17T15:24:35.881Z,102377.00
2023-09-17T15:27:06.561Z,102386.40
2023-09-17T15:29:36.118Z,102382.20
2023-09-17T15:32:04.581Z,102375.40
2023-09-17T15:34:33.081Z,102376.40
2023-09-17T15:37:01.794Z,102379.00
2023-09-17T15:39:30.046Z,102383.60
2023-09-17T15:41:59.508Z,102377.40
2023-09-17T15:44:32.869Z,102372.20
2023-09-17T15:47:03.540Z,102374.40
2023-09-17T15:49:31.581Z,102369.60
2023-09-17T15:51:59.940Z,102365.00
2023-09-17T15:54:28.209Z,102365.80
2023-09-17T15:56:56.200Z,102363.60
2023-09-17T15:59:26.366Z,102364.00
2023-09-17T16:01:56.455Z,102355.40
2023-09-17T16:04:26.586Z,102356.80
2023-09-17T16:06:54.818Z,102356.40
2023-09-17T16:09:25.327Z,102357.00
2023-09-17T16:11:54.692Z,102352.60
2023-09-17T16:14:22.923Z,102352.80
2023-09-17T16:16:56.009Z,102350.20
2023-09-17T16:19:29.292Z,102347.20
2023-09-17T16:21:58.280Z,102349.80
2023-09-17T16:24:26.791Z,102350.60
2023-09-17T16:26:54.788Z,102351.40
2023-09-17T16:29:22.793Z,102352.00
2023-09-17T16:31:54.683Z,102350.00
2023-09-17T16:34:23.459Z,102345.80
2023-09-17T16:36:53.351Z,102346.60
2023-09-17T16:39:21.902Z,102358.60
2023-09-17T16:41:49.835Z,102357.40
2023-09-17T16:44:20.263Z,102353.60
2023-09-17T16:46:49.720Z,102340.00
2023-09-17T16:49:18.652Z,102335.40
2023-09-17T16:51:48.251Z,102331.20
2023-09-17T16:54:21.122Z,102330.20
2023-09-17T16:56:49.108Z,102325.40
2023-09-17T16:59:18.902Z,102321.40
2023-09-17T17:01:48.195Z,102317.80
2023-09-17T17:04:17.522Z,102313.60
2023-09-17T17:06:45.449Z,102310.80
2023-09-17T17:09:13.946Z,102308.40
2023-09-17T17:11:44.434Z,102309.60
2023-09-17T17:14:12.350Z,102302.60
2023-09-17T17:16:40.550Z,102296.00
2023-09-17T17:19:11.738Z,102299.00
2023-09-17T17:21:42.491Z,102298.40
2023-09-17T17:24:10.472Z,102294.80
2023-09-17T17:26:39.217Z,102290.80
2023-09-17T17:29:08.677Z,102288.60
2023-09-17T17:31:41.670Z,102290.20
2023-09-17T17:34:11.424Z,102287.40
2023-09-17T17:36:42.787Z,102290.20
2023-09-17T17:39:11.690Z,102293.80
2023-09-17T17:41:43.778Z,102293.20
2023-09-17T17:44:12.242Z,102295.60
2023-09-17T17:46:42.654Z,102292.00
2023-09-17T17:49:12.653Z,102299.00
2023-09-17T17:51:42.435Z,102296.80
2023-09-17T17:54:11.317Z,102297.00
2023-09-17T17:56:39.536Z,102293.40
2023-09-17T17:59:08.066Z,102297.20
2023-09-17T18:01:37.690Z,102288.80
2023-09-17T18:04:07.112Z,102286.20
2023-09-17T18:06:37.050Z,102280.20
2023-09-17T18:09:09.454Z,102278.20
2023-09-17T18:11:38.652Z,102280.80
2023-09-17T18:14:08.605Z,102274.40
2023-09-17T18:16:37.197Z,102270.80
2023-09-17T18:19:05.233Z,102269.80
2023-09-17T18:21:33.095Z,102272.00
2023-09-17T18:24:04.072Z,102269.20
2023-09-17T18:26:31.924Z,102272.60
2023-09-17T18:29:00.926Z,102270.80
2023-09-17T18:31:36.494Z,102270.80
2023-09-17T18:34:04.986Z,102267.60
2023-09-17T18:36:35.678Z,102272.40
2023-09-17T18:39:04.265Z,102277.60
2023-09-17T18:41:33.161Z,102277.20
2023-09-17T18:44:01.403Z,102275.20
2023-09-17T18:46:33.739Z,102277.60
2023-09-17T18:49:05.930Z,102271.60
2023-09-17T18:51:34.384Z,102272.40
2023-09-17T18:54:04.385Z,102265.40
2023-09-17T18:56:33.066Z,102261.80
2023-09-17T18:59:03.577Z,102261.20
2023-09-17T19:01:31.859Z,102263.40
2023-09-17T19:04:01.295Z,102259.40
2023-09-17T19:06:29.323Z,102264.80
2023-09-17T19:08:58.537Z,102264.60
2023-09-17T19:11:29.112Z,102262.60
2023-09-17T19:14:01.826Z,102264.60
2023-09-17T19:16:31.184Z,102262.40
2023-09-17T19:18:59.424Z,102259.20
2023-09-17T19:21:28.135Z,102254.60
2023-09-17T19:23:58.571Z,102249.00
2023-09-17T19:26:26.566Z,102244.20
2023-09-17T19:28:56.000Z,102243.00
2023-09-17T19:31:26.282Z,102241.80
2023-09-17T19:33:54.419Z,102242.40
2023-09-17T19:36:24.414Z,102235.80
2023-09-17T19:38:53.936Z,102234.00
2023-09-17T19:41:22.211Z,102239.20
2023-09-17T19:43:50.939Z,102241.40
2023-09-17T19:46:21.183Z,102243.00
2023-09-17T19:48:49.415Z,102239.80
2023-09-17T19:51:18.780Z,102228.20
2023-09-17T19:53:47.017Z,102227.60
2023-09-17T19:56:15.411Z,102224.00
2023-09-17T19:58:44.496Z,102220.00
2023-09-17T20:01:13.619Z,102218.20
2023-09-17T20:03:41.937Z,102215.80
2023-09-17T20:06:11.578Z,102214.00
2023-09-17T20:08:39.684Z,102214.60
2023-09-17T20:11:08.175Z,102214.80
2023-09-17T20:13:37.119Z,102212.60
2023-09-17T20:16:05.171Z,102216.80
2023-09-17T20:18:34.053Z,102223.40
2023-09-17T20:21:01.908Z,102223.00
2023-09-17T20:23:37.266Z,102223.40
2023-09-17T20:26:11.240Z,102224.80
2023-09-17T20:28:39.329Z,102222.20
2023-09-17T20:31:07.625Z,102222.20
2023-09-17T20:33:36.775Z,102220.40
2023-09-17T20:36:05.141Z,102215.40
2023-09-17T20:38:33.418Z,102215.80
2023-09-17T20:41:01.885Z,102210.00
2023-09-17T20:43:32.534Z,102204.20
2023-09-17T20:46:00.807Z,102204.40
2023-09-17T20:48:29.333Z,102201.40
2023-09-17T20:51:04.503Z,102203.00
2023-09-17T20:53:33.598Z,102202.00
2023-09-17T20:56:02.891Z,102196.00
2023-09-17T20:58:30.899Z,102195.40
2023-09-17T21:00:58.988Z,102192.00
2023-09-17T21:03:27.332Z,102185.20
2023-09-17T21:05:57.117Z,102185.40
2023-09-17T21:08:25.805Z,102184.40
2023-09-17T21:10:54.040Z,102191.20
2023-09-17T21:13:22.422Z,102185.20
2023-09-17T21:15:51.504Z,102177.00
2023-09-17T21:18:19.386Z,102175.40
2023-09-17T21:20:47.856Z,102173.60
2023-09-17T21:23:16.558Z,102174.00
2023-09-17T21:25:44.648Z,102170.00
2023-09-17T21:28:12.660Z,102167.00
2023-09-17T21:30:42.892Z,102166.80
2023-09-17T21:33:10.948Z,102161.60
2023-09-17T21:35:41.194Z,102158.00
2023-09-17T21:38:09.718Z,102149.20
2023-09-17T21:40:39.865Z,102149.20
2023-09-17T21:43:08.056Z,102141.00
2023-09-17T21:45:36.611Z,102128.80
2023-09-17T21:48:05.052Z,102118.00
2023-09-17T21:50:34.640Z,102114.00
2023-09-17T21:53:03.184Z,102126.40
2023-09-17T21:55:31.373Z,102124.40
2023-09-17T21:57:59.370Z,102117.20
2023-09-17T22:00:27.234Z,102123.20
2023-09-17T22:02:59.213Z,102119.20
2023-09-17T22:05:29.651Z,102110.00
2023-09-17T22:07:59.437Z,102104.60
2023-09-17T22:10:27.281Z,102097.60
2023-09-17T22:12:55.179Z,102092.80
2023-09-17T22:15:25.909Z,102092.40
2023-09-17T22:17:54.722Z,102091.20
2023-09-17T22:20:23.609Z,102087.40
2023-09-17T22:22:54.350Z,102088.60
2023-09-17T22:25:23.687Z,102081.00
2023-09-17T22:27:54.558Z,102082.80
2023-09-17T22:30:24.968Z,102083.60
2023-09-17T22:32:53.041Z,102080.00
2023-09-17T22:35:23.675Z,102073.60
2023-09-17T22:37:53.950Z,102068.40
2023-09-17T22:40:22.172Z,102066.40
2023-09-17T22:42:51.017Z,102061.20
2023-09-17T22:45:19.139Z,102057.60
2023-09-17T22:47:47.336Z,102051.00
2023-09-17T22:50:15.335Z,102048.60
2023-09-17T22:52:43.531Z,102044.20
2023-09-17T22:55:11.773Z,102048.60
2023-09-17T22:57:40.359Z,102047.40
2023-09-17T23:00:10.142Z,102049.80
2023-09-17T23:02:38.094Z,102054.40
2023-09-17T23:05:09.620Z,102054.40
2023-09-17T23:07:37.689Z,102047.80
2023-09-17T23:10:06.482Z,102043.60
2023-09-17T23:12:34.434Z,102041.00
2023-09-17T23:15:05.098Z,102040.20
2023-09-17T23:17:34.199Z,102034.00
2023-09-17T23:20:09.437Z,102031.00
2023-09-17T23:22:38.057Z,102030.20
2023-09-17T23:25:06.404Z,102023.20
2023-09-17T23:27:34.429Z,102024.40
2023-09-17T23:30:03.985Z,102019.60
2023-09-17T23:32:32.096Z,102015.00
2023-09-17T23:35:01.181Z,102014.20
2023-09-17T23:37:30.701Z,102009.80
2023-09-17T23:39:59.957Z,102006.20
2023-09-17T23:42:27.936Z,101998.60
2023-09-17T23:44:56.566Z,101997.40
2023-09-17T23:47:25.594Z,101992.80
2023-09-17T23:49:54.735Z,101987.60
2023-09-17T23:52:22.855Z,101991.00
2023-09-17T23:54:51.543Z,101984.80
2023-09-17T23:57:19.688Z,101974.60
2023-09-17T23:59:47.989Z,101973.60
